sensor_id;sensor_type;location;lat;lon;timestamp;P1;durP1;ratioP1;P2;durP2;ratioP2
46334;SDS011;32051;48.882;9.210;2023-04-02T00:00:03;3.03;;;0.70;;
46334;SDS011;32051;48.882;9.210;2023-04-02T00:02:48;0.20;;;0.20;;
46334;SDS011;32051;48.882;9.210;2023-04-02T00:05:27;0.35;;;0.35;;
46334;SDS011;32051;48.882;9.210;2023-04-02T00:08:04;0.30;;;0.30;;
46334;SDS011;32051;48.882;9.210;2023-04-02T00:10:46;0.32;;;0.32;;
46334;SDS011;32051;48.882;9.210;2023-04-02T00:13:22;0.73;;;0.40;;
46334;SDS011;32051;48.882;9.210;2023-04-02T00:15:57;0.30;;;0.30;;
46334;SDS011;32051;48.882;9.210;2023-04-02T00:18:24;0.32;;;0.32;;
46334;SDS011;32051;48.882;9.210;2023-04-02T00:20:55;1.40;;;0.50;;
46334;SDS011;32051;48.882;9.210;2023-04-02T00:23:34;0.40;;;0.40;;
46334;SDS011;32051;48.882;9.210;2023-04-02T00:26:20;0.75;;;0.57;;
46334;SDS011;32051;48.882;9.210;2023-04-02T00:28:47;1.17;;;0.47;;
46334;SDS011;32051;48.882;9.210;2023-04-02T00:31:14;0.50;;;0.50;;
46334;SDS011;32051;48.882;9.210;2023-04-02T00:33:42;1.27;;;1.15;;
46334;SDS011;32051;48.882;9.210;2023-04-02T00:36:08;0.40;;;0.40;;
46334;SDS011;32051;48.882;9.210;2023-04-02T00:38:34;0.38;;;0.38;;
46334;SDS011;32051;48.882;9.210;2023-04-02T00:41:01;1.92;;;0.57;;
46334;SDS011;32051;48.882;9.210;2023-04-02T00:43:29;1.35;;;0.32;;
46334;SDS011;32051;48.882;9.210;2023-04-02T00:46:02;0.35;;;0.35;;
46334;SDS011;32051;48.882;9.210;2023-04-02T00:51:19;0.35;;;0.35;;
46334;SDS011;32051;48.882;9.210;2023-04-02T00:53:49;0.32;;;0.32;;
46334;SDS011;32051;48.882;9.210;2023-04-02T00:56:20;0.38;;;0.30;;
46334;SDS011;32051;48.882;9.210;2023-04-02T00:58:54;5.32;;;0.50;;
46334;SDS011;32051;48.882;9.210;2023-04-02T01:01:22;2.28;;;0.80;;
46334;SDS011;32051;48.882;9.210;2023-04-02T01:03:55;0.43;;;0.43;;
46334;SDS011;32051;48.882;9.210;2023-04-02T01:06:27;0.28;;;0.25;;
46334;SDS011;32051;48.882;9.210;2023-04-02T01:14:42;1.10;;;0.43;;
46334;SDS011;32051;48.882;9.210;2023-04-02T01:17:29;0.35;;;0.35;;
46334;SDS011;32051;48.882;9.210;2023-04-02T01:20:23;1.20;;;0.40;;
46334;SDS011;32051;48.882;9.210;2023-04-02T01:23:13;2.10;;;0.35;;
46334;SDS011;32051;48.882;9.210;2023-04-02T01:25:55;0.93;;;0.50;;
46334;SDS011;32051;48.882;9.210;2023-04-02T01:31:28;0.38;;;0.38;;
46334;SDS011;32051;48.882;9.210;2023-04-02T01:33:57;0.30;;;0.30;;
46334;SDS011;32051;48.882;9.210;2023-04-02T01:42:35;0.40;;;0.28;;
46334;SDS011;32051;48.882;9.210;2023-04-02T01:45:14;2.83;;;0.40;;
46334;SDS011;32051;48.882;9.210;2023-04-02T01:47:42;1.30;;;0.45;;
46334;SDS011;32051;48.882;9.210;2023-04-02T01:52:53;0.30;;;0.30;;
46334;SDS011;32051;48.882;9.210;2023-04-02T01:55:39;0.85;;;0.75;;
46334;SDS011;32051;48.882;9.210;2023-04-02T01:58:21;0.40;;;0.40;;
46334;SDS011;32051;48.882;9.210;2023-04-02T02:03:27;0.32;;;0.32;;
46334;SDS011;32051;48.882;9.210;2023-04-02T02:05:53;0.30;;;0.30;;
46334;SDS011;32051;48.882;9.210;2023-04-02T02:11:19;1.95;;;0.57;;
46334;SDS011;32051;48.882;9.210;2023-04-02T02:13:52;0.93;;;0.40;;
46334;SDS011;32051;48.882;9.210;2023-04-02T02:16:20;0.40;;;0.40;;
46334;SDS011;32051;48.882;9.210;2023-04-02T02:18:48;2.92;;;1.80;;
46334;SDS011;32051;48.882;9.210;2023-04-02T02:21:20;0.47;;;0.47;;
46334;SDS011;32051;48.882;9.210;2023-04-02T02:23:51;0.35;;;0.35;;
46334;SDS011;32051;48.882;9.210;2023-04-02T02:26:18;0.50;;;0.50;;
46334;SDS011;32051;48.882;9.210;2023-04-02T02:28:46;0.40;;;0.40;;
46334;SDS011;32051;48.882;9.210;2023-04-02T02:31:20;0.20;;;0.20;;
46334;SDS011;32051;48.882;9.210;2023-04-02T02:33:55;1.35;;;0.30;;
46334;SDS011;32051;48.882;9.210;2023-04-02T02:36:34;0.32;;;0.32;;
46334;SDS011;32051;48.882;9.210;2023-04-02T02:39:19;0.30;;;0.30;;
46334;SDS011;32051;48.882;9.210;2023-04-02T02:42:09;1.38;;;0.63;;
46334;SDS011;32051;48.882;9.210;2023-04-02T02:44:42;0.50;;;0.38;;
46334;SDS011;32051;48.882;9.210;2023-04-02T02:50:01;0.50;;;0.40;;
46334;SDS011;32051;48.882;9.210;2023-04-02T02:52:32;0.85;;;0.38;;
46334;SDS011;32051;48.882;9.210;2023-04-02T02:55:15;0.38;;;0.22;;
46334;SDS011;32051;48.882;9.210;2023-04-02T02:58:30;0.52;;;0.40;;
46334;SDS011;32051;48.882;9.210;2023-04-02T03:01:19;1.75;;;0.65;;
46334;SDS011;32051;48.882;9.210;2023-04-02T03:03:47;0.60;;;0.60;;
46334;SDS011;32051;48.882;9.210;2023-04-02T03:06:18;2.50;;;0.55;;
46334;SDS011;32051;48.882;9.210;2023-04-02T03:08:55;0.38;;;0.32;;
46334;SDS011;32051;48.882;9.210;2023-04-02T03:11:37;0.30;;;0.30;;
46334;SDS011;32051;48.882;9.210;2023-04-02T03:14:18;2.40;;;0.73;;
46334;SDS011;32051;48.882;9.210;2023-04-02T03:17:02;0.55;;;0.38;;
46334;SDS011;32051;48.882;9.210;2023-04-02T03:19:39;2.05;;;0.32;;
46334;SDS011;32051;48.882;9.210;2023-04-02T03:22:19;0.30;;;0.30;;
46334;SDS011;32051;48.882;9.210;2023-04-02T03:27:41;0.22;;;0.22;;
46334;SDS011;32051;48.882;9.210;2023-04-02T03:33:04;0.20;;;0.20;;
46334;SDS011;32051;48.882;9.210;2023-04-02T03:35:44;0.40;;;0.40;;
46334;SDS011;32051;48.882;9.210;2023-04-02T03:38:23;1.30;;;0.52;;
46334;SDS011;32051;48.882;9.210;2023-04-02T03:43:50;1.00;;;0.35;;
46334;SDS011;32051;48.882;9.210;2023-04-02T03:46:30;0.30;;;0.30;;
46334;SDS011;32051;48.882;9.210;2023-04-02T03:49:19;0.30;;;0.30;;
46334;SDS011;32051;48.882;9.210;2023-04-02T03:52:07;0.68;;;0.40;;
46334;SDS011;32051;48.882;9.210;2023-04-02T03:54:45;1.27;;;0.30;;
46334;SDS011;32051;48.882;9.210;2023-04-02T03:57:24;0.73;;;0.40;;
46334;SDS011;32051;48.882;9.210;2023-04-02T04:00:16;0.40;;;0.40;;
46334;SDS011;32051;48.882;9.210;2023-04-02T04:03:10;0.82;;;0.30;;
46334;SDS011;32051;48.882;9.210;2023-04-02T04:05:58;0.30;;;0.30;;
46334;SDS011;32051;48.882;9.210;2023-04-02T04:08:32;0.50;;;0.40;;
46334;SDS011;32051;48.882;9.210;2023-04-02T04:11:08;0.30;;;0.30;;
46334;SDS011;32051;48.882;9.210;2023-04-02T04:13:45;0.63;;;0.30;;
46334;SDS011;32051;48.882;9.210;2023-04-02T04:16:24;0.50;;;0.50;;
46334;SDS011;32051;48.882;9.210;2023-04-02T04:22:06;0.40;;;0.40;;
46334;SDS011;32051;48.882;9.210;2023-04-02T04:25:01;0.73;;;0.73;;
46334;SDS011;32051;48.882;9.210;2023-04-02T04:32:52;1.40;;;1.30;;
46334;SDS011;32051;48.882;9.210;2023-04-02T04:38:03;3.88;;;0.80;;
46334;SDS011;32051;48.882;9.210;2023-04-02T04:43:41;1.08;;;1.00;;
46334;SDS011;32051;48.882;9.210;2023-04-02T04:46:31;1.13;;;0.80;;
46334;SDS011;32051;48.882;9.210;2023-04-02T04:49:23;1.45;;;0.85;;
46334;SDS011;32051;48.882;9.210;2023-04-02T04:51:56;1.13;;;1.02;;
46334;SDS011;32051;48.882;9.210;2023-04-02T04:54:26;0.65;;;0.65;;
46334;SDS011;32051;48.882;9.210;2023-04-02T04:56:54;1.23;;;0.50;;
46334;SDS011;32051;48.882;9.210;2023-04-02T04:59:28;0.65;;;0.65;;
46334;SDS011;32051;48.882;9.210;2023-04-02T05:02:16;0.40;;;0.40;;
46334;SDS011;32051;48.882;9.210;2023-04-02T05:04:47;1.98;;;0.50;;
46334;SDS011;32051;48.882;9.210;2023-04-02T05:07:30;1.17;;;0.60;;
46334;SDS011;32051;48.882;9.210;2023-04-02T05:10:13;0.38;;;0.38;;
46334;SDS011;32051;48.882;9.210;2023-04-02T05:15:32;0.40;;;0.40;;
46334;SDS011;32051;48.882;9.210;2023-04-02T05:20:49;0.88;;;0.43;;
46334;SDS011;32051;48.882;9.210;2023-04-02T05:23:30;0.40;;;0.40;;
46334;SDS011;32051;48.882;9.210;2023-04-02T05:26:02;0.57;;;0.40;;
46334;SDS011;32051;48.882;9.210;2023-04-02T05:31:04;0.52;;;0.40;;
46334;SDS011;32051;48.882;9.210;2023-04-02T05:33:36;3.28;;;1.00;;
46334;SDS011;32051;48.882;9.210;2023-04-02T05:36:07;3.70;;;1.08;;
46334;SDS011;32051;48.882;9.210;2023-04-02T05:38:44;0.43;;;0.43;;
46334;SDS011;32051;48.882;9.210;2023-04-02T05:46:29;0.32;;;0.32;;
46334;SDS011;32051;48.882;9.210;2023-04-02T05:49:01;5.13;;;0.47;;
46334;SDS011;32051;48.882;9.210;2023-04-02T05:51:35;0.40;;;0.40;;
46334;SDS011;32051;48.882;9.210;2023-04-02T05:54:05;0.45;;;0.45;;
46334;SDS011;32051;48.882;9.210;2023-04-02T05:57:02;0.25;;;0.25;;
46334;SDS011;32051;48.882;9.210;2023-04-02T05:59:37;2.70;;;0.60;;
46334;SDS011;32051;48.882;9.210;2023-04-02T06:04:57;1.88;;;0.57;;
46334;SDS011;32051;48.882;9.210;2023-04-02T06:07:39;3.28;;;0.50;;
46334;SDS011;32051;48.882;9.210;2023-04-02T06:10:41;1.75;;;0.30;;
46334;SDS011;32051;48.882;9.210;2023-04-02T06:13:15;0.68;;;0.40;;
46334;SDS011;32051;48.882;9.210;2023-04-02T06:15:43;1.17;;;1.00;;
46334;SDS011;32051;48.882;9.210;2023-04-02T06:20:44;0.82;;;0.40;;
46334;SDS011;32051;48.882;9.210;2023-04-02T06:31:57;0.45;;;0.40;;
46334;SDS011;32051;48.882;9.210;2023-04-02T06:34:16;0.40;;;0.40;;
46334;SDS011;32051;48.882;9.210;2023-04-02T06:36:54;0.40;;;0.30;;
46334;SDS011;32051;48.882;9.210;2023-04-02T06:39:27;0.57;;;0.40;;
46334;SDS011;32051;48.882;9.210;2023-04-02T06:44:53;1.23;;;0.90;;
46334;SDS011;32051;48.882;9.210;2023-04-02T06:47:43;0.90;;;0.90;;
46334;SDS011;32051;48.882;9.210;2023-04-02T06:50:21;1.77;;;1.10;;
46334;SDS011;32051;48.882;9.210;2023-04-02T06:52:57;2.22;;;0.70;;
46334;SDS011;32051;48.882;9.210;2023-04-02T06:58:21;1.02;;;0.80;;
46334;SDS011;32051;48.882;9.210;2023-04-02T07:00:49;0.40;;;0.40;;
46334;SDS011;32051;48.882;9.210;2023-04-02T07:03:33;0.98;;;0.95;;
46334;SDS011;32051;48.882;9.210;2023-04-02T07:06:15;0.38;;;0.38;;
46334;SDS011;32051;48.882;9.210;2023-04-02T07:08:44;0.32;;;0.30;;
46334;SDS011;32051;48.882;9.210;2023-04-02T07:11:14;0.70;;;0.70;;
46334;SDS011;32051;48.882;9.210;2023-04-02T07:13:42;0.50;;;0.50;;
46334;SDS011;32051;48.882;9.210;2023-04-02T07:16:13;4.35;;;0.57;;
46334;SDS011;32051;48.882;9.210;2023-04-02T07:18:41;0.32;;;0.30;;
46334;SDS011;32051;48.882;9.210;2023-04-02T07:21:10;0.40;;;0.40;;
46334;SDS011;32051;48.882;9.210;2023-04-02T07:23:37;2.55;;;0.40;;
46334;SDS011;32051;48.882;9.210;2023-04-02T07:26:03;0.50;;;0.50;;
46334;SDS011;32051;48.882;9.210;2023-04-02T07:28:31;0.55;;;0.40;;
46334;SDS011;32051;48.882;9.210;2023-04-02T07:30:57;0.65;;;0.50;;
46334;SDS011;32051;48.882;9.210;2023-04-02T07:33:26;0.40;;;0.40;;
46334;SDS011;32051;48.882;9.210;2023-04-02T07:35:54;0.32;;;0.32;;
46334;SDS011;32051;48.882;9.210;2023-04-02T07:38:21;9.07;;;0.50;;
46334;SDS011;32051;48.882;9.210;2023-04-02T07:40:47;0.40;;;0.40;;
46334;SDS011;32051;48.882;9.210;2023-04-02T07:43:13;3.45;;;0.77;;
46334;SDS011;32051;48.882;9.210;2023-04-02T07:45:40;0.80;;;0.50;;
46334;SDS011;32051;48.882;9.210;2023-04-02T07:48:06;0.95;;;0.40;;
46334;SDS011;32051;48.882;9.210;2023-04-02T07:50:33;0.98;;;0.98;;
46334;SDS011;32051;48.882;9.210;2023-04-02T07:52:59;0.52;;;0.52;;
46334;SDS011;32051;48.882;9.210;2023-04-02T07:55:26;2.00;;;0.57;;
46334;SDS011;32051;48.882;9.210;2023-04-02T07:57:53;0.80;;;0.80;;
46334;SDS011;32051;48.882;9.210;2023-04-02T08:00:20;0.77;;;0.77;;
46334;SDS011;32051;48.882;9.210;2023-04-02T08:02:47;1.60;;;0.80;;
46334;SDS011;32051;48.882;9.210;2023-04-02T08:05:14;0.70;;;0.70;;
46334;SDS011;32051;48.882;9.210;2023-04-02T08:07:40;0.75;;;0.75;;
46334;SDS011;32051;48.882;9.210;2023-04-02T08:10:06;4.50;;;0.60;;
46334;SDS011;32051;48.882;9.210;2023-04-02T08:12:34;0.57;;;0.43;;
46334;SDS011;32051;48.882;9.210;2023-04-02T08:15:00;1.27;;;0.63;;
46334;SDS011;32051;48.882;9.210;2023-04-02T08:17:26;0.88;;;0.40;;
46334;SDS011;32051;48.882;9.210;2023-04-02T08:19:58;0.40;;;0.40;;
46334;SDS011;32051;48.882;9.210;2023-04-02T08:22:28;0.60;;;0.60;;
46334;SDS011;32051;48.882;9.210;2023-04-02T08:24:54;1.65;;;0.55;;
46334;SDS011;32051;48.882;9.210;2023-04-02T08:27:21;2.20;;;0.50;;
46334;SDS011;32051;48.882;9.210;2023-04-02T08:29:50;1.38;;;0.38;;
46334;SDS011;32051;48.882;9.210;2023-04-02T08:32:16;0.60;;;0.60;;
46334;SDS011;32051;48.882;9.210;2023-04-02T08:34:42;0.63;;;0.60;;
46334;SDS011;32051;48.882;9.210;2023-04-02T08:37:11;1.45;;;0.65;;
46334;SDS011;32051;48.882;9.210;2023-04-02T08:39:37;0.65;;;0.55;;
46334;SDS011;32051;48.882;9.210;2023-04-02T08:42:13;1.45;;;1.23;;
46334;SDS011;32051;48.882;9.210;2023-04-02T08:45:04;0.52;;;0.52;;
46334;SDS011;32051;48.882;9.210;2023-04-02T08:47:46;0.88;;;0.88;;
46334;SDS011;32051;48.882;9.210;2023-04-02T08:53:12;2.30;;;1.20;;
46334;SDS011;32051;48.882;9.210;2023-04-02T09:03:53;4.43;;;0.70;;
46334;SDS011;32051;48.882;9.210;2023-04-02T09:06:22;0.50;;;0.50;;
46334;SDS011;32051;48.882;9.210;2023-04-02T09:08:49;0.82;;;0.52;;
46334;SDS011;32051;48.882;9.210;2023-04-02T09:11:19;0.40;;;0.40;;
46334;SDS011;32051;48.882;9.210;2023-04-02T09:13:58;0.68;;;0.68;;
46334;SDS011;32051;48.882;9.210;2023-04-02T09:16:36;1.55;;;0.75;;
46334;SDS011;32051;48.882;9.210;2023-04-02T09:19:25;2.30;;;0.63;;
46334;SDS011;32051;48.882;9.210;2023-04-02T09:22:05;1.45;;;0.70;;
46334;SDS011;32051;48.882;9.210;2023-04-02T09:24:33;0.95;;;0.60;;
46334;SDS011;32051;48.882;9.210;2023-04-02T09:27:02;0.90;;;0.90;;
46334;SDS011;32051;48.882;9.210;2023-04-02T09:32:08;0.68;;;0.57;;
46334;SDS011;32051;48.882;9.210;2023-04-02T09:34:49;0.28;;;0.28;;
46334;SDS011;32051;48.882;9.210;2023-04-02T09:37:30;1.58;;;0.40;;
46334;SDS011;32051;48.882;9.210;2023-04-02T09:40:17;0.57;;;0.40;;
46334;SDS011;32051;48.882;9.210;2023-04-02T09:42:47;1.40;;;0.82;;
46334;SDS011;32051;48.882;9.210;2023-04-02T09:45:16;0.98;;;0.98;;
46334;SDS011;32051;48.882;9.210;2023-04-02T09:47:45;0.55;;;0.40;;
46334;SDS011;32051;48.882;9.210;2023-04-02T09:52:46;0.30;;;0.30;;
46334;SDS011;32051;48.882;9.210;2023-04-02T09:55:20;0.50;;;0.50;;
46334;SDS011;32051;48.882;9.210;2023-04-02T09:58:13;0.80;;;0.80;;
46334;SDS011;32051;48.882;9.210;2023-04-02T10:00:38;0.40;;;0.40;;
46334;SDS011;32051;48.882;9.210;2023-04-02T10:03:29;1.38;;;0.50;;
46334;SDS011;32051;48.882;9.210;2023-04-02T10:06:05;0.20;;;0.20;;
46334;SDS011;32051;48.882;9.210;2023-04-02T10:08:40;0.30;;;0.30;;
46334;SDS011;32051;48.882;9.210;2023-04-02T10:11:09;0.15;;;0.10;;
46334;SDS011;32051;48.882;9.210;2023-04-02T10:13:53;0.25;;;0.20;;
46334;SDS011;32051;48.882;9.210;2023-04-02T10:16:27;0.30;;;0.28;;
46334;SDS011;32051;48.882;9.210;2023-04-02T10:19:22;0.20;;;0.20;;
46334;SDS011;32051;48.882;9.210;2023-04-02T10:21:54;0.22;;;0.22;;
46334;SDS011;32051;48.882;9.210;2023-04-02T10:24:21;1.40;;;0.28;;
46334;SDS011;32051;48.882;9.210;2023-04-02T10:29:59;0.30;;;0.30;;
46334;SDS011;32051;48.882;9.210;2023-04-02T10:32:33;0.52;;;0.40;;
46334;SDS011;32051;48.882;9.210;2023-04-02T10:42:57;0.30;;;0.30;;
46334;SDS011;32051;48.882;9.210;2023-04-02T10:45:48;0.20;;;0.20;;
46334;SDS011;32051;48.882;9.210;2023-04-02T10:48:26;3.78;;;0.30;;
46334;SDS011;32051;48.882;9.210;2023-04-02T10:51:11;0.25;;;0.25;;
46334;SDS011;32051;48.882;9.210;2023-04-02T10:53:50;1.45;;;0.45;;
46334;SDS011;32051;48.882;9.210;2023-04-02T10:56:19;1.95;;;0.50;;
46334;SDS011;32051;48.882;9.210;2023-04-02T10:58:51;0.30;;;0.30;;
46334;SDS011;32051;48.882;9.210;2023-04-02T11:01:26;0.40;;;0.40;;
46334;SDS011;32051;48.882;9.210;2023-04-02T11:04:04;0.38;;;0.38;;
46334;SDS011;32051;48.882;9.210;2023-04-02T11:06:41;0.20;;;0.20;;
46334;SDS011;32051;48.882;9.210;2023-04-02T11:09:17;0.35;;;0.35;;
46334;SDS011;32051;48.882;9.210;2023-04-02T11:11:45;5.30;;;0.40;;
46334;SDS011;32051;48.882;9.210;2023-04-02T11:14:25;0.52;;;0.40;;
46334;SDS011;32051;48.882;9.210;2023-04-02T11:16:53;0.20;;;0.20;;
46334;SDS011;32051;48.882;9.210;2023-04-02T11:22:00;0.10;;;0.10;;
46334;SDS011;32051;48.882;9.210;2023-04-02T11:29:38;0.25;;;0.25;;
46334;SDS011;32051;48.882;9.210;2023-04-02T11:32:24;0.25;;;0.25;;
46334;SDS011;32051;48.882;9.210;2023-04-02T11:42:36;0.10;;;0.10;;
46334;SDS011;32051;48.882;9.210;2023-04-02T11:48:24;0.20;;;0.20;;
46334;SDS011;32051;48.882;9.210;2023-04-02T11:50:40;0.52;;;0.40;;
46334;SDS011;32051;48.882;9.210;2023-04-02T11:55:39;0.20;;;0.20;;
46334;SDS011;32051;48.882;9.210;2023-04-02T11:58:54;0.30;;;0.30;;
46334;SDS011;32051;48.882;9.210;2023-04-02T12:11:33;0.50;;;0.50;;
46334;SDS011;32051;48.882;9.210;2023-04-02T12:16:59;1.17;;;0.50;;
46334;SDS011;32051;48.882;9.210;2023-04-02T12:19:27;0.50;;;0.50;;
46334;SDS011;32051;48.882;9.210;2023-04-02T12:21:55;0.63;;;0.50;;
46334;SDS011;32051;48.882;9.210;2023-04-02T12:24:23;0.40;;;0.40;;
46334;SDS011;32051;48.882;9.210;2023-04-02T12:27:16;0.75;;;0.65;;
46334;SDS011;32051;48.882;9.210;2023-04-02T12:29:49;0.57;;;0.57;;
46334;SDS011;32051;48.882;9.210;2023-04-02T12:32:25;0.40;;;0.40;;
46334;SDS011;32051;48.882;9.210;2023-04-02T12:34:55;1.83;;;1.30;;
46334;SDS011;32051;48.882;9.210;2023-04-02T12:37:26;1.02;;;0.98;;
46334;SDS011;32051;48.882;9.210;2023-04-02T12:39:57;1.73;;;1.33;;
46334;SDS011;32051;48.882;9.210;2023-04-02T12:42:26;2.55;;;1.13;;
46334;SDS011;32051;48.882;9.210;2023-04-02T12:44:53;0.60;;;0.60;;
46334;SDS011;32051;48.882;9.210;2023-04-02T12:47:19;0.60;;;0.60;;
46334;SDS011;32051;48.882;9.210;2023-04-02T12:49:45;0.70;;;0.70;;
46334;SDS011;32051;48.882;9.210;2023-04-02T12:52:12;0.60;;;0.60;;
46334;SDS011;32051;48.882;9.210;2023-04-02T12:54:51;0.60;;;0.60;;
46334;SDS011;32051;48.882;9.210;2023-04-02T12:59:51;0.40;;;0.40;;
46334;SDS011;32051;48.882;9.210;2023-04-02T13:02:19;0.57;;;0.57;;
46334;SDS011;32051;48.882;9.210;2023-04-02T13:04:49;0.85;;;0.50;;
46334;SDS011;32051;48.882;9.210;2023-04-02T13:07:16;0.77;;;0.77;;
46334;SDS011;32051;48.882;9.210;2023-04-02T13:15:15;0.90;;;0.70;;
46334;SDS011;32051;48.882;9.210;2023-04-02T13:18:00;0.77;;;0.60;;
46334;SDS011;32051;48.882;9.210;2023-04-02T13:20:27;0.77;;;0.77;;
46334;SDS011;32051;48.882;9.210;2023-04-02T13:22:56;1.27;;;0.80;;
46334;SDS011;32051;48.882;9.210;2023-04-02T13:25:27;0.52;;;0.52;;
46334;SDS011;32051;48.882;9.210;2023-04-02T13:27:58;0.60;;;0.60;;
46334;SDS011;32051;48.882;9.210;2023-04-02T13:30:25;0.50;;;0.50;;
46334;SDS011;32051;48.882;9.210;2023-04-02T13:32:53;0.60;;;0.50;;
46334;SDS011;32051;48.882;9.210;2023-04-02T13:35:19;1.15;;;0.63;;
46334;SDS011;32051;48.882;9.210;2023-04-02T13:37:46;0.57;;;0.57;;
46334;SDS011;32051;48.882;9.210;2023-04-02T13:40:16;0.50;;;0.50;;
46334;SDS011;32051;48.882;9.210;2023-04-02T13:42:43;0.60;;;0.60;;
46334;SDS011;32051;48.882;9.210;2023-04-02T13:45:23;1.60;;;0.88;;
46334;SDS011;32051;48.882;9.210;2023-04-02T13:47:50;0.57;;;0.57;;
46334;SDS011;32051;48.882;9.210;2023-04-02T13:50:17;0.50;;;0.50;;
46334;SDS011;32051;48.882;9.210;2023-04-02T13:52:43;0.80;;;0.80;;
46334;SDS011;32051;48.882;9.210;2023-04-02T13:55:09;0.60;;;0.60;;
46334;SDS011;32051;48.882;9.210;2023-04-02T13:57:35;0.93;;;0.93;;
46334;SDS011;32051;48.882;9.210;2023-04-02T14:00:02;0.70;;;0.70;;
46334;SDS011;32051;48.882;9.210;2023-04-02T14:02:30;3.47;;;2.80;;
46334;SDS011;32051;48.882;9.210;2023-04-02T14:10:41;0.80;;;0.80;;
46334;SDS011;32051;48.882;9.210;2023-04-02T14:13:28;1.10;;;0.85;;
46334;SDS011;32051;48.882;9.210;2023-04-02T14:37:40;1.02;;;0.80;;
46334;SDS011;32051;48.882;9.210;2023-04-02T14:45:57;0.60;;;0.60;;
46334;SDS011;32051;48.882;9.210;2023-04-02T14:48:42;3.33;;;0.98;;
46334;SDS011;32051;48.882;9.210;2023-04-02T14:51:36;0.65;;;0.65;;
46334;SDS011;32051;48.882;9.210;2023-04-02T14:54:28;0.80;;;0.80;;
46334;SDS011;32051;48.882;9.210;2023-04-02T14:57:05;7.18;;;1.17;;
46334;SDS011;32051;48.882;9.210;2023-04-02T15:00:34;1.25;;;1.15;;
46334;SDS011;32051;48.882;9.210;2023-04-02T15:02:39;1.00;;;0.90;;
46334;SDS011;32051;48.882;9.210;2023-04-02T15:05:16;1.10;;;1.00;;
46334;SDS011;32051;48.882;9.210;2023-04-02T15:13:11;2.05;;;0.95;;
46334;SDS011;32051;48.882;9.210;2023-04-02T15:18:20;1.20;;;0.80;;
46334;SDS011;32051;48.882;9.210;2023-04-02T15:20:52;0.70;;;0.70;;
46334;SDS011;32051;48.882;9.210;2023-04-02T15:23:40;2.30;;;1.85;;
46334;SDS011;32051;48.882;9.210;2023-04-02T15:32:17;2.72;;;1.02;;
46334;SDS011;32051;48.882;9.210;2023-04-02T15:40:06;0.70;;;0.70;;
46334;SDS011;32051;48.882;9.210;2023-04-02T15:45:40;1.17;;;0.88;;
46334;SDS011;32051;48.882;9.210;2023-04-02T15:48:31;0.50;;;0.50;;
46334;SDS011;32051;48.882;9.210;2023-04-02T16:00:01;1.17;;;1.08;;
46334;SDS011;32051;48.882;9.210;2023-04-02T16:06:06;0.50;;;0.50;;
46334;SDS011;32051;48.882;9.210;2023-04-02T16:08:57;1.60;;;0.80;;
46334;SDS011;32051;48.882;9.210;2023-04-02T16:11:45;0.82;;;0.82;;
46334;SDS011;32051;48.882;9.210;2023-04-02T16:16:47;0.60;;;0.60;;
46334;SDS011;32051;48.882;9.210;2023-04-02T16:19:21;0.70;;;0.70;;
46334;SDS011;32051;48.882;9.210;2023-04-02T16:24:45;1.30;;;1.20;;
46334;SDS011;32051;48.882;9.210;2023-04-02T16:33:07;0.70;;;0.70;;
46334;SDS011;32051;48.882;9.210;2023-04-02T16:36:10;1.80;;;1.50;;
46334;SDS011;32051;48.882;9.210;2023-04-02T16:38:52;1.08;;;1.02;;
46334;SDS011;32051;48.882;9.210;2023-04-02T16:41:29;2.03;;;1.73;;
46334;SDS011;32051;48.882;9.210;2023-04-02T16:44:34;1.10;;;1.10;;
46334;SDS011;32051;48.882;9.210;2023-04-02T16:47:19;1.77;;;1.00;;
46334;SDS011;32051;48.882;9.210;2023-04-02T16:49:51;1.00;;;1.00;;
46334;SDS011;32051;48.882;9.210;2023-04-02T16:52:39;1.58;;;1.48;;
46334;SDS011;32051;48.882;9.210;2023-04-02T17:00:52;1.08;;;1.05;;
46334;SDS011;32051;48.882;9.210;2023-04-02T17:11:40;1.10;;;0.93;;
46334;SDS011;32051;48.882;9.210;2023-04-02T17:17:21;1.10;;;1.10;;
46334;SDS011;32051;48.882;9.210;2023-04-02T17:19:48;1.17;;;1.17;;
46334;SDS011;32051;48.882;9.210;2023-04-02T17:22:18;0.85;;;0.85;;
46334;SDS011;32051;48.882;9.210;2023-04-02T17:24:47;1.00;;;1.00;;
46334;SDS011;32051;48.882;9.210;2023-04-02T17:29:52;1.00;;;1.00;;
46334;SDS011;32051;48.882;9.210;2023-04-02T17:32:30;0.77;;;0.77;;
46334;SDS011;32051;48.882;9.210;2023-04-02T17:38:11;1.02;;;1.02;;
46334;SDS011;32051;48.882;9.210;2023-04-02T17:45:51;2.15;;;1.20;;
46334;SDS011;32051;48.882;9.210;2023-04-02T17:51:03;1.02;;;1.02;;
46334;SDS011;32051;48.882;9.210;2023-04-02T17:53:45;1.55;;;1.45;;
46334;SDS011;32051;48.882;9.210;2023-04-02T17:58:55;1.30;;;1.30;;
46334;SDS011;32051;48.882;9.210;2023-04-02T18:01:30;1.40;;;1.40;;
46334;SDS011;32051;48.882;9.210;2023-04-02T18:09:30;1.70;;;1.60;;
46334;SDS011;32051;48.882;9.210;2023-04-02T18:12:02;1.70;;;1.60;;
46334;SDS011;32051;48.882;9.210;2023-04-02T18:17:36;1.30;;;1.20;;
46334;SDS011;32051;48.882;9.210;2023-04-02T18:20:08;1.90;;;1.52;;
46334;SDS011;32051;48.882;9.210;2023-04-02T18:22:42;2.88;;;1.55;;
46334;SDS011;32051;48.882;9.210;2023-04-02T18:40:56;1.55;;;1.48;;
46334;SDS011;32051;48.882;9.210;2023-04-02T18:43:37;2.40;;;2.20;;
46334;SDS011;32051;48.882;9.210;2023-04-02T18:46:15;1.70;;;1.65;;
46334;SDS011;32051;48.882;9.210;2023-04-02T18:48:53;1.73;;;1.63;;
46334;SDS011;32051;48.882;9.210;2023-04-02T18:51:21;1.90;;;1.80;;
46334;SDS011;32051;48.882;9.210;2023-04-02T18:54:12;2.10;;;2.00;;
46334;SDS011;32051;48.882;9.210;2023-04-02T18:56:38;5.78;;;1.55;;
46334;SDS011;32051;48.882;9.210;2023-04-02T19:01:46;2.10;;;1.95;;
46334;SDS011;32051;48.882;9.210;2023-04-02T19:04:21;1.67;;;1.58;;
46334;SDS011;32051;48.882;9.210;2023-04-02T19:06:52;1.83;;;1.73;;
46334;SDS011;32051;48.882;9.210;2023-04-02T19:09:20;1.70;;;1.60;;
46334;SDS011;32051;48.882;9.210;2023-04-02T19:11:48;1.50;;;1.40;;
46334;SDS011;32051;48.882;9.210;2023-04-02T19:14:17;1.45;;;1.40;;
46334;SDS011;32051;48.882;9.210;2023-04-02T19:19:19;1.60;;;1.50;;
46334;SDS011;32051;48.882;9.210;2023-04-02T19:24:52;2.75;;;1.40;;
46334;SDS011;32051;48.882;9.210;2023-04-02T19:27:13;2.47;;;2.28;;
46334;SDS011;32051;48.882;9.210;2023-04-02T19:29:51;1.67;;;1.48;;
46334;SDS011;32051;48.882;9.210;2023-04-02T19:32:42;2.15;;;2.00;;
46334;SDS011;32051;48.882;9.210;2023-04-02T19:37:48;1.73;;;1.63;;
46334;SDS011;32051;48.882;9.210;2023-04-02T19:47:57;1.88;;;1.77;;
46334;SDS011;32051;48.882;9.210;2023-04-02T19:50:24;2.00;;;1.80;;
46334;SDS011;32051;48.882;9.210;2023-04-02T19:52:50;2.72;;;1.77;;
46334;SDS011;32051;48.882;9.210;2023-04-02T19:55:16;2.15;;;1.90;;
46334;SDS011;32051;48.882;9.210;2023-04-02T19:57:42;2.15;;;1.67;;
46334;SDS011;32051;48.882;9.210;2023-04-02T20:00:10;1.73;;;1.60;;
46334;SDS011;32051;48.882;9.210;2023-04-02T20:02:39;2.22;;;1.95;;
46334;SDS011;32051;48.882;9.210;2023-04-02T20:05:05;1.95;;;1.85;;
46334;SDS011;32051;48.882;9.210;2023-04-02T20:07:32;3.60;;;2.63;;
46334;SDS011;32051;48.882;9.210;2023-04-02T20:09:58;2.95;;;2.03;;
46334;SDS011;32051;48.882;9.210;2023-04-02T20:12:27;2.28;;;2.08;;
46334;SDS011;32051;48.882;9.210;2023-04-02T20:14:53;5.10;;;2.10;;
46334;SDS011;32051;48.882;9.210;2023-04-02T20:17:19;1.85;;;1.75;;
46334;SDS011;32051;48.882;9.210;2023-04-02T20:19:45;6.03;;;2.67;;
46334;SDS011;32051;48.882;9.210;2023-04-02T20:22:11;1.90;;;1.80;;
46334;SDS011;32051;48.882;9.210;2023-04-02T20:24:40;1.88;;;1.55;;
46334;SDS011;32051;48.882;9.210;2023-04-02T20:27:06;1.55;;;1.45;;
46334;SDS011;32051;48.882;9.210;2023-04-02T20:29:33;7.22;;;2.10;;
46334;SDS011;32051;48.882;9.210;2023-04-02T20:31:59;1.92;;;1.83;;
46334;SDS011;32051;48.882;9.210;2023-04-02T20:34:25;2.15;;;1.95;;
46334;SDS011;32051;48.882;9.210;2023-04-02T20:36:51;1.67;;;1.58;;